BVX532Z LGAV-OMDB
Flight info
| Callsign | BVX532Z |
|---|---|
| Flight time | 4h 18m |
| Altitude | 37000 |
| Route | KEA UL607 PAXIS Y707 OBRAN/N0469F390 L321 REXUM M872 BDB Y214 RAPMA DCT KUVSO DCT KATIT DCT PEKEM M628 RIGIL G783 ELUDA/N0487F350 G783 ASPED Q308 KIPOK/N0487F340 Q568 IMPED |
| Aircraft | A343/H-SDE2E3FGHIJ4J5M1RWXY/LB1D1 |
Departure
| Time | 2026-04-22 09:43 |
|---|---|
| Airport | Athens Eleftherios Venizelos International Airport (LGAV) |
Arrival
| Time | 2026-04-22 14:01 |
|---|---|
| Airport | Dubai International Airport (OMDB) |
| Time | Latitude | Longitude | Altitude | Speed | Heading |
|---|---|---|---|---|---|
| 2026-04-22 08:46 | 37.92472 | 23.93829 | 305 ft | 0 kts | 306° |
| 2026-04-22 09:31 | 37.92471 | 23.93830 | 305 ft | 1 kts | 306° |
| 2026-04-22 09:32 | 37.92457 | 23.93855 | 309 ft | 4 kts | 306° |
| 2026-04-22 09:32 | 37.92441 | 23.93882 | 306 ft | 4 kts | 306° |
| 2026-04-22 09:32 | 37.92428 | 23.93906 | 307 ft | 2 kts | 306° |
| 2026-04-22 09:32 | 37.92411 | 23.93928 | 305 ft | 4 kts | 334° |
| 2026-04-22 09:33 | 37.92388 | 23.93933 | 307 ft | 4 kts | 21° |
| 2026-04-22 09:33 | 37.92372 | 23.93922 | 305 ft | 0 kts | 37° |
| 2026-04-22 09:39 | 37.92382 | 23.93931 | 305 ft | 4 kts | 37° |
| 2026-04-22 09:39 | 37.92421 | 23.93970 | 309 ft | 10 kts | 37° |
| 2026-04-22 09:39 | 37.92475 | 23.94024 | 309 ft | 10 kts | 49° |
| 2026-04-22 09:39 | 37.92472 | 23.94093 | 309 ft | 8 kts | 118° |
| 2026-04-22 09:40 | 37.92437 | 23.94149 | 311 ft | 9 kts | 128° |
| 2026-04-22 09:40 | 37.92412 | 23.94219 | 309 ft | 9 kts | 96° |
| 2026-04-22 09:40 | 37.92413 | 23.94290 | 311 ft | 7 kts | 86° |
| 2026-04-22 09:40 | 37.92413 | 23.94355 | 312 ft | 8 kts | 92° |
| 2026-04-22 09:41 | 37.92442 | 23.94412 | 314 ft | 6 kts | 37° |
| 2026-04-22 09:41 | 37.92443 | 23.94413 | 314 ft | 0 kts | 37° |
| 2026-04-22 09:41 | 37.92457 | 23.94426 | 313 ft | 18 kts | 37° |
| 2026-04-22 09:42 | 37.92722 | 23.94676 | 310 ft | 75 kts | 37° |
| 2026-04-22 09:42 | 37.93277 | 23.95204 | 299 ft | 122 kts | 37° |
| 2026-04-22 09:42 | 37.94067 | 23.95954 | 291 ft | 159 kts | 37° |
| 2026-04-22 09:42 | 37.94996 | 23.96812 | 650 ft | 167 kts | 37° |
| 2026-04-22 09:43 | 37.95947 | 23.97711 | 1104 ft | 173 kts | 39° |
| 2026-04-22 09:43 | 37.96903 | 23.98646 | 1651 ft | 175 kts | 38° |
| 2026-04-22 09:43 | 37.97880 | 23.99597 | 2137 ft | 182 kts | 37° |
| 2026-04-22 09:43 | 37.98962 | 24.00643 | 2405 ft | 210 kts | 37° |
| 2026-04-22 09:44 | 38.00199 | 24.01834 | 2748 ft | 238 kts | 36° |
| 2026-04-22 09:44 | 38.01541 | 24.03123 | 3449 ft | 246 kts | 36° |
| 2026-04-22 09:44 | 38.02921 | 24.04450 | 4224 ft | 252 kts | 35° |
| 2026-04-22 09:44 | 38.04332 | 24.05809 | 5023 ft | 256 kts | 34° |
| 2026-04-22 09:45 | 38.05768 | 24.07191 | 5811 ft | 261 kts | 34° |
| 2026-04-22 09:45 | 38.07234 | 24.08608 | 6544 ft | 269 kts | 34° |
| 2026-04-22 09:45 | 38.08543 | 24.10339 | 7293 ft | 277 kts | 56° |
| 2026-04-22 09:45 | 38.09173 | 24.12668 | 7998 ft | 287 kts | 85° |
| 2026-04-22 09:46 | 38.08886 | 24.15210 | 8546 ft | 297 kts | 109° |
| 2026-04-22 09:46 | 38.08118 | 24.17670 | 9237 ft | 302 kts | 120° |
| 2026-04-22 09:46 | 38.06829 | 24.19771 | 9946 ft | 302 kts | 142° |
| 2026-04-22 09:46 | 38.05027 | 24.21146 | 10410 ft | 308 kts | 165° |
| 2026-04-22 09:47 | 38.02899 | 24.21737 | 10667 ft | 321 kts | 176° |
| 2026-04-22 09:47 | 38.00655 | 24.22096 | 10925 ft | 338 kts | 177° |
| 2026-04-22 09:47 | 37.98259 | 24.22469 | 11177 ft | 355 kts | 177° |
| 2026-04-22 09:47 | 37.95749 | 24.22880 | 11473 ft | 371 kts | 176° |
| 2026-04-22 09:48 | 37.93161 | 24.23322 | 11953 ft | 379 kts | 176° |
| 2026-04-22 09:48 | 37.90533 | 24.23779 | 12545 ft | 384 kts | 176° |
| 2026-04-22 09:48 | 37.87866 | 24.24245 | 13147 ft | 389 kts | 176° |
| 2026-04-22 09:48 | 37.85165 | 24.24718 | 13750 ft | 394 kts | 176° |
| 2026-04-22 09:49 | 37.82429 | 24.25198 | 14314 ft | 398 kts | 176° |
| 2026-04-22 09:49 | 37.79665 | 24.25682 | 14860 ft | 403 kts | 176° |
| 2026-04-22 09:49 | 37.76874 | 24.26171 | 15426 ft | 407 kts | 176° |
| 2026-04-22 09:49 | 37.74087 | 24.26658 | 15980 ft | 411 kts | 176° |
| 2026-04-22 09:50 | 37.71202 | 24.27163 | 16546 ft | 415 kts | 176° |
| 2026-04-22 09:50 | 37.68361 | 24.27659 | 17095 ft | 419 kts | 176° |
| 2026-04-22 09:50 | 37.65461 | 24.28165 | 17625 ft | 423 kts | 176° |
| 2026-04-22 09:50 | 37.62534 | 24.28676 | 18215 ft | 426 kts | 176° |
| 2026-04-22 09:51 | 37.59581 | 24.29201 | 18711 ft | 430 kts | 176° |
| 2026-04-22 09:51 | 37.56629 | 24.30018 | 19232 ft | 438 kts | 167° |
| 2026-04-22 09:51 | 37.53774 | 24.31463 | 19714 ft | 446 kts | 156° |
| 2026-04-22 09:51 | 37.51039 | 24.33377 | 20224 ft | 451 kts | 153° |
| 2026-04-22 09:52 | 37.48350 | 24.35445 | 20707 ft | 455 kts | 151° |
| 2026-04-22 09:52 | 37.45668 | 24.37592 | 21198 ft | 458 kts | 150° |
| 2026-04-22 09:52 | 37.42972 | 24.39772 | 21699 ft | 461 kts | 150° |
| 2026-04-22 09:52 | 37.40267 | 24.41949 | 22162 ft | 464 kts | 150° |
| 2026-04-22 09:53 | 37.37532 | 24.44131 | 22654 ft | 466 kts | 151° |
| 2026-04-22 09:53 | 37.34779 | 24.46306 | 23108 ft | 469 kts | 151° |
| 2026-04-22 09:53 | 37.32001 | 24.48488 | 23551 ft | 472 kts | 151° |
| 2026-04-22 09:53 | 37.29207 | 24.50672 | 23898 ft | 475 kts | 151° |
| 2026-04-22 09:54 | 37.26391 | 24.52869 | 24241 ft | 477 kts | 152° |
| 2026-04-22 09:54 | 37.23597 | 24.55048 | 24588 ft | 480 kts | 152° |
| 2026-04-22 09:54 | 37.20752 | 24.57264 | 24938 ft | 483 kts | 152° |
| 2026-04-22 09:54 | 37.17890 | 24.59492 | 25278 ft | 485 kts | 152° |
| 2026-04-22 09:55 | 37.15008 | 24.61734 | 25601 ft | 488 kts | 152° |
| 2026-04-22 09:55 | 37.12109 | 24.63988 | 25930 ft | 490 kts | 152° |
| 2026-04-22 09:55 | 37.09201 | 24.66248 | 26254 ft | 493 kts | 152° |
| 2026-04-22 09:55 | 37.06281 | 24.68514 | 26573 ft | 495 kts | 152° |
| 2026-04-22 09:56 | 37.03346 | 24.70790 | 26876 ft | 497 kts | 152° |
| 2026-04-22 09:56 | 37.00393 | 24.73078 | 27176 ft | 500 kts | 152° |
| 2026-04-22 09:56 | 36.97434 | 24.75369 | 27474 ft | 502 kts | 152° |
| 2026-04-22 09:56 | 36.94454 | 24.77674 | 27769 ft | 504 kts | 152° |
| 2026-04-22 09:57 | 36.91464 | 24.79984 | 28055 ft | 507 kts | 152° |
| 2026-04-22 09:57 | 36.88490 | 24.82284 | 28344 ft | 509 kts | 152° |
| 2026-04-22 09:57 | 36.85469 | 24.84622 | 28617 ft | 510 kts | 152° |
| 2026-04-22 09:57 | 36.82439 | 24.86967 | 28907 ft | 512 kts | 152° |
| 2026-04-22 09:58 | 36.79401 | 24.89315 | 29185 ft | 514 kts | 152° |
| 2026-04-22 09:58 | 36.76393 | 24.91638 | 29543 ft | 514 kts | 152° |
| 2026-04-22 09:58 | 36.73354 | 24.93983 | 29927 ft | 513 kts | 152° |
| 2026-04-22 09:58 | 36.70319 | 24.96323 | 30251 ft | 513 kts | 152° |
| 2026-04-22 09:59 | 36.67285 | 24.98663 | 30548 ft | 512 kts | 152° |
| 2026-04-22 09:59 | 36.64252 | 25.00992 | 30866 ft | 511 kts | 152° |
| 2026-04-22 09:59 | 36.61221 | 25.03313 | 31164 ft | 511 kts | 152° |
| 2026-04-22 09:59 | 36.58194 | 25.05627 | 31434 ft | 511 kts | 152° |
| 2026-04-22 10:00 | 36.55166 | 25.07941 | 31744 ft | 510 kts | 152° |
| 2026-04-22 10:00 | 36.52144 | 25.10248 | 32051 ft | 509 kts | 152° |
| 2026-04-22 10:00 | 36.49166 | 25.12521 | 32338 ft | 508 kts | 152° |
| 2026-04-22 10:00 | 36.46145 | 25.14825 | 32625 ft | 508 kts | 152° |
| 2026-04-22 10:01 | 36.43130 | 25.17123 | 32910 ft | 507 kts | 152° |
| 2026-04-22 10:01 | 36.40128 | 25.19409 | 33202 ft | 506 kts | 152° |
| 2026-04-22 10:01 | 36.37126 | 25.21693 | 33489 ft | 505 kts | 152° |
| 2026-04-22 10:01 | 36.34131 | 25.23970 | 33736 ft | 505 kts | 153° |
| 2026-04-22 10:02 | 36.31136 | 25.26244 | 34039 ft | 503 kts | 152° |
| 2026-04-22 10:02 | 36.28156 | 25.28506 | 34309 ft | 501 kts | 153° |
| 2026-04-22 10:02 | 36.25181 | 25.30761 | 34532 ft | 501 kts | 153° |
| 2026-04-22 10:02 | 36.22245 | 25.32984 | 34717 ft | 501 kts | 153° |
| 2026-04-22 10:03 | 36.19276 | 25.35230 | 34950 ft | 500 kts | 153° |
| 2026-04-22 10:03 | 36.16307 | 25.37474 | 35176 ft | 499 kts | 153° |
| 2026-04-22 10:03 | 36.13342 | 25.39714 | 35378 ft | 498 kts | 153° |
| 2026-04-22 10:03 | 36.10386 | 25.41947 | 35575 ft | 498 kts | 153° |
| 2026-04-22 10:04 | 36.07429 | 25.44181 | 35755 ft | 498 kts | 153° |
| 2026-04-22 10:04 | 36.04473 | 25.46408 | 35942 ft | 497 kts | 153° |
| 2026-04-22 10:04 | 36.01520 | 25.48630 | 36140 ft | 497 kts | 153° |
| 2026-04-22 10:04 | 35.98566 | 25.50852 | 36329 ft | 497 kts | 153° |
| 2026-04-22 10:05 | 35.95611 | 25.53071 | 36489 ft | 496 kts | 153° |
| 2026-04-22 10:05 | 35.92660 | 25.55287 | 36654 ft | 496 kts | 153° |
| 2026-04-22 10:05 | 35.89704 | 25.57505 | 36826 ft | 496 kts | 153° |
| 2026-04-22 10:05 | 35.86792 | 25.59688 | 36988 ft | 496 kts | 153° |
| 2026-04-22 10:06 | 35.80866 | 25.64124 | 37003 ft | 497 kts | 153° |
| 2026-04-22 10:06 | 35.74971 | 25.68532 | 37008 ft | 495 kts | 153° |
| 2026-04-22 10:07 | 35.69068 | 25.72935 | 37007 ft | 496 kts | 153° |
| 2026-04-22 10:07 | 35.63168 | 25.77329 | 37007 ft | 496 kts | 153° |
| 2026-04-22 10:08 | 35.57265 | 25.81719 | 37007 ft | 496 kts | 153° |
| 2026-04-22 10:08 | 35.51360 | 25.86101 | 37008 ft | 496 kts | 153° |
| 2026-04-22 10:09 | 35.45484 | 25.90455 | 37005 ft | 496 kts | 153° |
| 2026-04-22 10:09 | 35.39578 | 25.94824 | 37005 ft | 496 kts | 153° |
| 2026-04-22 10:10 | 35.33668 | 25.99187 | 37011 ft | 496 kts | 153° |
| 2026-04-22 10:10 | 35.27753 | 26.03547 | 37004 ft | 496 kts | 153° |
| 2026-04-22 10:11 | 35.21835 | 26.07902 | 37005 ft | 496 kts | 153° |
| 2026-04-22 10:11 | 35.15955 | 26.12221 | 37009 ft | 496 kts | 153° |
| 2026-04-22 10:12 | 35.10037 | 26.16561 | 37012 ft | 496 kts | 153° |
| 2026-04-22 10:12 | 35.04394 | 26.21476 | 37010 ft | 500 kts | 144° |
| 2026-04-22 10:13 | 34.99050 | 26.26943 | 37015 ft | 501 kts | 143° |
| 2026-04-22 10:13 | 34.93752 | 26.32489 | 37009 ft | 502 kts | 142° |
| 2026-04-22 10:14 | 34.88412 | 26.38063 | 37013 ft | 509 kts | 143° |
| 2026-04-22 10:14 | 34.82984 | 26.43694 | 37013 ft | 516 kts | 143° |
| 2026-04-22 10:15 | 34.77520 | 26.49346 | 37017 ft | 520 kts | 143° |
| 2026-04-22 10:15 | 34.72017 | 26.55030 | 37018 ft | 518 kts | 143° |
| 2026-04-22 10:16 | 34.66516 | 26.60701 | 37017 ft | 517 kts | 143° |
| 2026-04-22 10:16 | 34.61027 | 26.66348 | 37024 ft | 517 kts | 143° |
| 2026-04-22 10:17 | 34.55535 | 26.71987 | 37023 ft | 517 kts | 143° |
| 2026-04-22 10:17 | 34.50039 | 26.77621 | 37029 ft | 517 kts | 143° |
| 2026-04-22 10:18 | 34.44564 | 26.83224 | 37029 ft | 517 kts | 143° |
| 2026-04-22 10:18 | 34.39063 | 26.88842 | 37032 ft | 517 kts | 143° |
| 2026-04-22 10:19 | 34.33562 | 26.94452 | 37024 ft | 517 kts | 143° |
| 2026-04-22 10:19 | 34.28060 | 27.00052 | 37032 ft | 517 kts | 143° |
| 2026-04-22 10:20 | 34.22556 | 27.05643 | 37033 ft | 517 kts | 143° |
| 2026-04-22 10:20 | 34.17044 | 27.11234 | 37033 ft | 517 kts | 143° |
| 2026-04-22 10:21 | 34.12457 | 27.15879 | 37039 ft | 517 kts | 143° |
| 2026-04-22 10:21 | 34.06045 | 27.22360 | 37036 ft | 517 kts | 143° |
| 2026-04-22 10:22 | 34.01419 | 27.27028 | 37037 ft | 518 kts | 143° |
| 2026-04-22 10:22 | 33.95840 | 27.32417 | 37040 ft | 515 kts | 150° |
| 2026-04-22 10:23 | 33.89546 | 27.36372 | 37040 ft | 509 kts | 159° |
| 2026-04-22 10:23 | 33.83082 | 27.39834 | 37041 ft | 508 kts | 161° |
| 2026-04-22 10:24 | 33.76594 | 27.43214 | 37016 ft | 508 kts | 161° |
| 2026-04-22 10:24 | 33.70107 | 27.46613 | 37038 ft | 509 kts | 161° |
| 2026-04-22 10:25 | 33.63615 | 27.50034 | 37046 ft | 510 kts | 161° |
| 2026-04-22 10:25 | 33.57119 | 27.53460 | 37046 ft | 509 kts | 161° |
| 2026-04-22 10:26 | 33.50666 | 27.56857 | 37048 ft | 509 kts | 161° |
| 2026-04-22 10:26 | 33.44168 | 27.60271 | 37045 ft | 510 kts | 161° |
| 2026-04-22 10:27 | 33.37657 | 27.63686 | 37047 ft | 510 kts | 161° |
| 2026-04-22 10:27 | 33.31153 | 27.67091 | 37048 ft | 510 kts | 161° |
| 2026-04-22 10:28 | 33.24644 | 27.70494 | 37045 ft | 510 kts | 161° |
| 2026-04-22 10:28 | 33.18172 | 27.73871 | 37050 ft | 511 kts | 161° |
| 2026-04-22 10:29 | 33.11645 | 27.77272 | 37049 ft | 511 kts | 161° |
| 2026-04-22 10:29 | 33.05119 | 27.80667 | 37049 ft | 512 kts | 161° |
| 2026-04-22 10:30 | 32.98588 | 27.84059 | 37051 ft | 512 kts | 161° |
| 2026-04-22 10:30 | 32.92061 | 27.87444 | 37038 ft | 512 kts | 161° |
| 2026-04-22 10:31 | 32.85513 | 27.90833 | 37056 ft | 513 kts | 161° |
| 2026-04-22 10:31 | 32.79009 | 27.94194 | 37049 ft | 513 kts | 161° |
| 2026-04-22 10:32 | 32.72456 | 27.97576 | 37054 ft | 513 kts | 161° |
| 2026-04-22 10:32 | 32.65907 | 28.00950 | 37049 ft | 513 kts | 161° |
| 2026-04-22 10:33 | 32.59365 | 28.04316 | 37046 ft | 513 kts | 162° |
| 2026-04-22 10:33 | 32.52815 | 28.07679 | 37049 ft | 512 kts | 161° |
| 2026-04-22 10:34 | 32.46261 | 28.11039 | 37047 ft | 512 kts | 162° |
| 2026-04-22 10:34 | 32.39762 | 28.14366 | 37054 ft | 512 kts | 162° |
| 2026-04-22 10:35 | 32.33202 | 28.17719 | 37050 ft | 513 kts | 162° |
| 2026-04-22 10:35 | 32.26644 | 28.21065 | 37050 ft | 513 kts | 162° |
| 2026-04-22 10:36 | 32.20080 | 28.24410 | 37051 ft | 513 kts | 162° |
| 2026-04-22 10:36 | 32.13516 | 28.27748 | 37031 ft | 513 kts | 162° |
| 2026-04-22 10:37 | 32.03662 | 28.32751 | 37050 ft | 514 kts | 162° |
| 2026-04-22 10:38 | 31.97083 | 28.36085 | 37050 ft | 514 kts | 162° |
| 2026-04-22 10:38 | 31.90545 | 28.39392 | 37050 ft | 514 kts | 162° |
| 2026-04-22 10:39 | 31.83966 | 28.42716 | 37045 ft | 514 kts | 162° |
| 2026-04-22 10:39 | 31.77374 | 28.46030 | 37056 ft | 515 kts | 162° |
| 2026-04-22 10:40 | 31.70784 | 28.49333 | 37054 ft | 515 kts | 162° |
| 2026-04-22 10:40 | 31.64194 | 28.52633 | 37054 ft | 515 kts | 162° |
| 2026-04-22 10:41 | 31.57598 | 28.55936 | 37032 ft | 515 kts | 162° |
| 2026-04-22 10:41 | 31.51034 | 28.59203 | 37062 ft | 515 kts | 162° |
| 2026-04-22 10:42 | 31.44440 | 28.62477 | 37059 ft | 515 kts | 162° |
| 2026-04-22 10:42 | 31.37840 | 28.65752 | 37059 ft | 515 kts | 162° |
| 2026-04-22 10:43 | 31.31245 | 28.69022 | 37063 ft | 515 kts | 162° |
| 2026-04-22 10:43 | 31.24647 | 28.72288 | 37061 ft | 514 kts | 162° |
| 2026-04-22 10:44 | 31.18057 | 28.75546 | 37062 ft | 514 kts | 162° |
| 2026-04-22 10:44 | 31.11470 | 28.78796 | 37053 ft | 514 kts | 162° |
| 2026-04-22 10:45 | 31.04878 | 28.82044 | 37056 ft | 514 kts | 162° |
| 2026-04-22 10:45 | 30.98322 | 28.85270 | 37057 ft | 514 kts | 163° |
| 2026-04-22 10:46 | 30.91736 | 28.88506 | 37052 ft | 514 kts | 163° |
| 2026-04-22 10:46 | 30.85140 | 28.91742 | 37047 ft | 514 kts | 163° |
| 2026-04-22 10:47 | 30.78550 | 28.94970 | 37041 ft | 513 kts | 163° |
| 2026-04-22 10:47 | 30.71944 | 28.98200 | 37032 ft | 513 kts | 163° |
| 2026-04-22 10:48 | 30.65411 | 29.01391 | 37035 ft | 513 kts | 163° |
| 2026-04-22 10:48 | 30.58838 | 29.04597 | 37051 ft | 512 kts | 163° |
| 2026-04-22 10:49 | 30.52297 | 29.07927 | 37056 ft | 517 kts | 157° |
| 2026-04-22 10:49 | 30.46509 | 29.13030 | 37033 ft | 529 kts | 141° |
| 2026-04-22 10:50 | 30.41314 | 29.19126 | 37045 ft | 533 kts | 138° |
| 2026-04-22 10:50 | 30.36208 | 29.25371 | 37028 ft | 533 kts | 138° |
| 2026-04-22 10:51 | 30.31070 | 29.31582 | 37040 ft | 533 kts | 139° |
| 2026-04-22 10:51 | 30.25945 | 29.37724 | 37053 ft | 533 kts | 139° |
| 2026-04-22 10:52 | 30.20776 | 29.43884 | 37050 ft | 533 kts | 139° |
| 2026-04-22 10:52 | 30.15609 | 29.50032 | 37048 ft | 533 kts | 139° |
| 2026-04-22 10:53 | 30.10436 | 29.56183 | 37032 ft | 533 kts | 139° |
| 2026-04-22 10:53 | 30.05294 | 29.62289 | 37057 ft | 534 kts | 139° |
| 2026-04-22 10:54 | 30.00096 | 29.68452 | 37054 ft | 535 kts | 139° |
| 2026-04-22 10:54 | 29.94907 | 29.74597 | 37055 ft | 535 kts | 139° |
| 2026-04-22 10:55 | 29.89710 | 29.80739 | 37056 ft | 535 kts | 139° |
| 2026-04-22 10:55 | 29.84541 | 29.86838 | 37056 ft | 535 kts | 139° |
| 2026-04-22 10:56 | 29.79335 | 29.92972 | 37058 ft | 535 kts | 139° |
| 2026-04-22 10:56 | 29.74123 | 29.99103 | 37059 ft | 535 kts | 139° |
| 2026-04-22 10:57 | 29.68917 | 30.05218 | 37056 ft | 535 kts | 139° |
| 2026-04-22 10:57 | 29.63704 | 30.11331 | 37053 ft | 535 kts | 139° |
| 2026-04-22 10:58 | 29.58486 | 30.17439 | 37058 ft | 535 kts | 139° |
| 2026-04-22 10:58 | 29.53295 | 30.23508 | 37052 ft | 535 kts | 139° |
| 2026-04-22 10:59 | 29.48069 | 30.29607 | 37053 ft | 536 kts | 139° |
| 2026-04-22 10:59 | 29.42827 | 30.35715 | 37053 ft | 536 kts | 139° |
| 2026-04-22 11:00 | 29.37600 | 30.41813 | 37055 ft | 537 kts | 139° |
| 2026-04-22 11:00 | 29.32418 | 30.47998 | 37049 ft | 538 kts | 139° |
| 2026-04-22 11:01 | 29.27247 | 30.54204 | 37049 ft | 538 kts | 139° |
| 2026-04-22 11:01 | 29.22100 | 30.60351 | 37049 ft | 538 kts | 139° |
| 2026-04-22 11:02 | 29.16914 | 30.66519 | 37049 ft | 538 kts | 139° |
| 2026-04-22 11:02 | 29.11723 | 30.72679 | 37052 ft | 538 kts | 139° |
| 2026-04-22 11:03 | 29.06532 | 30.78829 | 37053 ft | 538 kts | 139° |
| 2026-04-22 11:03 | 29.01324 | 30.84992 | 37046 ft | 538 kts | 140° |
| 2026-04-22 11:04 | 28.96111 | 30.91150 | 37046 ft | 539 kts | 140° |
| 2026-04-22 11:04 | 28.90892 | 30.97307 | 37034 ft | 539 kts | 140° |
| 2026-04-22 11:05 | 28.85711 | 31.03410 | 37044 ft | 539 kts | 140° |
| 2026-04-22 11:05 | 28.80481 | 31.09560 | 37039 ft | 539 kts | 140° |
| 2026-04-22 11:06 | 28.75257 | 31.15695 | 37039 ft | 539 kts | 140° |
| 2026-04-22 11:06 | 28.70028 | 31.21825 | 37032 ft | 539 kts | 140° |
| 2026-04-22 11:07 | 28.64909 | 31.28089 | 37033 ft | 542 kts | 138° |
| 2026-04-22 11:07 | 28.59896 | 31.34500 | 37028 ft | 542 kts | 137° |
| 2026-04-22 11:08 | 28.54902 | 31.40858 | 37027 ft | 542 kts | 138° |
| 2026-04-22 11:08 | 28.49846 | 31.47227 | 37031 ft | 541 kts | 138° |
| 2026-04-22 11:09 | 28.44792 | 31.53562 | 37018 ft | 541 kts | 139° |
| 2026-04-22 11:09 | 28.39726 | 31.59898 | 37020 ft | 541 kts | 139° |
| 2026-04-22 11:10 | 28.34665 | 31.66220 | 37018 ft | 541 kts | 139° |
| 2026-04-22 11:10 | 28.29608 | 31.72529 | 37013 ft | 541 kts | 139° |
| 2026-04-22 11:11 | 28.24530 | 31.78855 | 37009 ft | 542 kts | 139° |
| 2026-04-22 11:11 | 28.19452 | 31.85172 | 37010 ft | 542 kts | 139° |
| 2026-04-22 11:12 | 28.14373 | 31.91481 | 37003 ft | 541 kts | 139° |
| 2026-04-22 11:12 | 28.09322 | 31.97744 | 36993 ft | 541 kts | 139° |
| 2026-04-22 11:13 | 28.04298 | 32.04118 | 36994 ft | 546 kts | 133° |
| 2026-04-22 11:13 | 28.00241 | 32.11483 | 36979 ft | 554 kts | 124° |
| 2026-04-22 11:14 | 27.97138 | 32.17862 | 36979 ft | 555 kts | 123° |
| 2026-04-22 11:14 | 27.92875 | 32.26818 | 36964 ft | 556 kts | 123° |
| 2026-04-22 11:15 | 27.89812 | 32.33208 | 36926 ft | 555 kts | 124° |
| 2026-04-22 11:15 | 27.86103 | 32.40888 | 36930 ft | 556 kts | 124° |
| 2026-04-22 11:16 | 27.82385 | 32.48553 | 36928 ft | 556 kts | 124° |
| 2026-04-22 11:16 | 27.78665 | 32.56209 | 36925 ft | 556 kts | 124° |
| 2026-04-22 11:17 | 27.74934 | 32.63875 | 36904 ft | 556 kts | 124° |
| 2026-04-22 11:17 | 27.71191 | 32.71552 | 36920 ft | 557 kts | 124° |
| 2026-04-22 11:18 | 27.67468 | 32.79176 | 36919 ft | 557 kts | 124° |
| 2026-04-22 11:18 | 27.63720 | 32.86835 | 36920 ft | 557 kts | 124° |
| 2026-04-22 11:19 | 27.59989 | 32.94447 | 36927 ft | 558 kts | 124° |
| 2026-04-22 11:19 | 27.56207 | 33.02149 | 36923 ft | 558 kts | 124° |
| 2026-04-22 11:20 | 27.52462 | 33.09763 | 36929 ft | 558 kts | 125° |
| 2026-04-22 11:20 | 27.48685 | 33.17428 | 36923 ft | 558 kts | 125° |
| 2026-04-22 11:21 | 27.44916 | 33.25063 | 36928 ft | 558 kts | 125° |
| 2026-04-22 11:21 | 27.41142 | 33.32693 | 36929 ft | 558 kts | 125° |
| 2026-04-22 11:22 | 27.37363 | 33.40321 | 36933 ft | 558 kts | 125° |
| 2026-04-22 11:22 | 27.33602 | 33.47900 | 36935 ft | 559 kts | 125° |
| 2026-04-22 11:23 | 27.29799 | 33.55543 | 36934 ft | 560 kts | 125° |
| 2026-04-22 11:23 | 27.25995 | 33.63177 | 36931 ft | 560 kts | 125° |
| 2026-04-22 11:24 | 27.22180 | 33.70822 | 36924 ft | 560 kts | 126° |
| 2026-04-22 11:24 | 27.18387 | 33.78488 | 36908 ft | 563 kts | 122° |
| 2026-04-22 11:25 | 27.15271 | 33.86598 | 36913 ft | 567 kts | 117° |
| 2026-04-22 11:25 | 27.12339 | 33.94819 | 36915 ft | 568 kts | 116° |
| 2026-04-22 11:26 | 27.09451 | 34.03009 | 36913 ft | 568 kts | 117° |
| 2026-04-22 11:26 | 27.06524 | 34.11250 | 36911 ft | 568 kts | 117° |
| 2026-04-22 11:27 | 27.03582 | 34.19484 | 36909 ft | 568 kts | 117° |
| 2026-04-22 11:27 | 27.00636 | 34.27710 | 36908 ft | 568 kts | 117° |
| 2026-04-22 11:28 | 26.97685 | 34.35918 | 36900 ft | 568 kts | 117° |
| 2026-04-22 11:28 | 26.94741 | 34.44082 | 36894 ft | 568 kts | 117° |
| 2026-04-22 11:29 | 26.91776 | 34.52292 | 36891 ft | 568 kts | 117° |
| 2026-04-22 11:29 | 26.88809 | 34.60496 | 36887 ft | 568 kts | 117° |
| 2026-04-22 11:30 | 26.85839 | 34.68689 | 36882 ft | 568 kts | 117° |
| 2026-04-22 11:30 | 26.82866 | 34.76876 | 36876 ft | 568 kts | 117° |
| 2026-04-22 11:31 | 26.79881 | 34.85077 | 36873 ft | 568 kts | 117° |
| 2026-04-22 11:31 | 26.76898 | 34.93254 | 36870 ft | 568 kts | 117° |
| 2026-04-22 11:32 | 26.73916 | 35.01435 | 36856 ft | 567 kts | 117° |
| 2026-04-22 11:32 | 26.70922 | 35.09611 | 36863 ft | 568 kts | 118° |
| 2026-04-22 11:33 | 26.67922 | 35.17786 | 36856 ft | 568 kts | 118° |
| 2026-04-22 11:33 | 26.64919 | 35.25956 | 36840 ft | 568 kts | 118° |
| 2026-04-22 11:34 | 26.61911 | 35.34126 | 36850 ft | 568 kts | 118° |
| 2026-04-22 11:34 | 26.58899 | 35.42289 | 36848 ft | 568 kts | 118° |
| 2026-04-22 11:35 | 26.55904 | 35.50391 | 36828 ft | 568 kts | 118° |
| 2026-04-22 11:35 | 26.52822 | 35.58518 | 36837 ft | 568 kts | 119° |
| 2026-04-22 11:36 | 26.49701 | 35.66622 | 36835 ft | 568 kts | 119° |
| 2026-04-22 11:36 | 26.46582 | 35.74731 | 36834 ft | 568 kts | 119° |
| 2026-04-22 11:37 | 26.43468 | 35.82840 | 36832 ft | 569 kts | 119° |
| 2026-04-22 11:37 | 26.40338 | 35.90982 | 36826 ft | 571 kts | 119° |
| 2026-04-22 11:38 | 26.37203 | 35.99125 | 36827 ft | 571 kts | 119° |
| 2026-04-22 11:38 | 26.32515 | 36.11272 | 36826 ft | 571 kts | 119° |
| 2026-04-22 11:39 | 26.29364 | 36.19412 | 36825 ft | 571 kts | 119° |
| 2026-04-22 11:39 | 26.26217 | 36.27525 | 36819 ft | 571 kts | 119° |
| 2026-04-22 11:40 | 26.23054 | 36.35662 | 36828 ft | 571 kts | 119° |
| 2026-04-22 11:40 | 26.19894 | 36.43778 | 36829 ft | 571 kts | 119° |
| 2026-04-22 11:41 | 26.16498 | 36.51679 | 36822 ft | 567 kts | 124° |
| 2026-04-22 11:41 | 26.12762 | 36.59386 | 36815 ft | 566 kts | 125° |
| 2026-04-22 11:42 | 26.08965 | 36.67060 | 36816 ft | 565 kts | 126° |
| 2026-04-22 11:42 | 26.05162 | 36.74730 | 36808 ft | 565 kts | 126° |
| 2026-04-22 11:43 | 26.01364 | 36.82398 | 36810 ft | 566 kts | 126° |
| 2026-04-22 11:43 | 25.97558 | 36.90081 | 36810 ft | 566 kts | 126° |
| 2026-04-22 11:44 | 25.93774 | 36.97707 | 36811 ft | 566 kts | 126° |
| 2026-04-22 11:44 | 25.89964 | 37.05373 | 36810 ft | 566 kts | 126° |
| 2026-04-22 11:45 | 25.86153 | 37.13026 | 36809 ft | 566 kts | 126° |
| 2026-04-22 11:45 | 25.82334 | 37.20681 | 36808 ft | 566 kts | 126° |
| 2026-04-22 11:46 | 25.78517 | 37.28330 | 36809 ft | 566 kts | 126° |
| 2026-04-22 11:46 | 25.74708 | 37.35984 | 36817 ft | 567 kts | 126° |
| 2026-04-22 11:47 | 25.70920 | 37.43591 | 36829 ft | 567 kts | 126° |
| 2026-04-22 11:47 | 25.67101 | 37.51245 | 36825 ft | 567 kts | 126° |
| 2026-04-22 11:48 | 25.63275 | 37.58896 | 36833 ft | 567 kts | 126° |
| 2026-04-22 11:48 | 25.59443 | 37.66544 | 36834 ft | 567 kts | 126° |
| 2026-04-22 11:49 | 25.55613 | 37.74179 | 36833 ft | 567 kts | 126° |
| 2026-04-22 11:49 | 25.51777 | 37.81809 | 36831 ft | 566 kts | 126° |
| 2026-04-22 11:50 | 25.47966 | 37.89378 | 36829 ft | 566 kts | 126° |
| 2026-04-22 11:50 | 25.44123 | 37.96997 | 36827 ft | 567 kts | 126° |
| 2026-04-22 11:51 | 25.40271 | 38.04621 | 36822 ft | 567 kts | 126° |
| 2026-04-22 11:51 | 25.36418 | 38.12234 | 36820 ft | 567 kts | 126° |
| 2026-04-22 11:52 | 25.32561 | 38.19847 | 36805 ft | 567 kts | 126° |
| 2026-04-22 11:52 | 25.28700 | 38.27451 | 36820 ft | 568 kts | 126° |
| 2026-04-22 11:53 | 25.24831 | 38.35059 | 36828 ft | 567 kts | 126° |
| 2026-04-22 11:53 | 25.20985 | 38.42612 | 36831 ft | 567 kts | 126° |
| 2026-04-22 11:54 | 25.17112 | 38.50203 | 36839 ft | 567 kts | 126° |
| 2026-04-22 11:54 | 25.13237 | 38.57792 | 36841 ft | 567 kts | 126° |
| 2026-04-22 11:55 | 25.09348 | 38.65371 | 36829 ft | 567 kts | 126° |
| 2026-04-22 11:55 | 25.05455 | 38.72942 | 36847 ft | 567 kts | 126° |
| 2026-04-22 11:56 | 25.01563 | 38.80510 | 36865 ft | 567 kts | 126° |
| 2026-04-22 11:56 | 24.97664 | 38.88075 | 36862 ft | 567 kts | 126° |
| 2026-04-22 11:57 | 24.93764 | 38.95638 | 36869 ft | 567 kts | 126° |
| 2026-04-22 11:57 | 24.89882 | 39.03142 | 36876 ft | 567 kts | 126° |
| 2026-04-22 11:58 | 24.85965 | 39.10693 | 36876 ft | 567 kts | 126° |
| 2026-04-22 11:58 | 24.82055 | 39.18222 | 36876 ft | 566 kts | 126° |
| 2026-04-22 11:59 | 24.78148 | 39.25751 | 36884 ft | 566 kts | 126° |
| 2026-04-22 11:59 | 24.74232 | 39.33272 | 36889 ft | 566 kts | 126° |
| 2026-04-22 12:00 | 24.70310 | 39.40789 | 36901 ft | 566 kts | 126° |
| 2026-04-22 12:00 | 24.66416 | 39.48249 | 36901 ft | 566 kts | 126° |
| 2026-04-22 12:01 | 24.62483 | 39.55767 | 36890 ft | 566 kts | 126° |
| 2026-04-22 12:01 | 24.58553 | 39.63264 | 36882 ft | 566 kts | 126° |
| 2026-04-22 12:02 | 24.55154 | 39.71110 | 36887 ft | 577 kts | 110° |
| 2026-04-22 12:02 | 24.53760 | 39.79770 | 36887 ft | 582 kts | 99° |
| 2026-04-22 12:03 | 24.52904 | 39.88648 | 36890 ft | 584 kts | 97° |
| 2026-04-22 12:03 | 24.52124 | 39.97529 | 36898 ft | 584 kts | 98° |
| 2026-04-22 12:04 | 24.51437 | 40.04972 | 36903 ft | 584 kts | 98° |
| 2026-04-22 12:04 | 24.50583 | 40.13793 | 36894 ft | 584 kts | 98° |
| 2026-04-22 12:05 | 24.49705 | 40.22676 | 36895 ft | 585 kts | 98° |
| 2026-04-22 12:05 | 24.48824 | 40.31552 | 36893 ft | 584 kts | 98° |
| 2026-04-22 12:06 | 24.47943 | 40.40413 | 36896 ft | 584 kts | 98° |
| 2026-04-22 12:06 | 24.47056 | 40.49274 | 36885 ft | 584 kts | 98° |
| 2026-04-22 12:07 | 24.46165 | 40.58129 | 36897 ft | 583 kts | 98° |
| 2026-04-22 12:07 | 24.45273 | 40.66982 | 36894 ft | 583 kts | 98° |
| 2026-04-22 12:08 | 24.44368 | 40.75836 | 36903 ft | 583 kts | 98° |
| 2026-04-22 12:08 | 24.43457 | 40.84689 | 36896 ft | 584 kts | 98° |
| 2026-04-22 12:09 | 24.42540 | 40.93556 | 36898 ft | 584 kts | 98° |
| 2026-04-22 12:09 | 24.41620 | 41.02415 | 36902 ft | 584 kts | 98° |
| 2026-04-22 12:10 | 24.40703 | 41.11209 | 36899 ft | 584 kts | 98° |
| 2026-04-22 12:10 | 24.39773 | 41.20074 | 36908 ft | 584 kts | 98° |
| 2026-04-22 12:11 | 24.38839 | 41.28937 | 36912 ft | 584 kts | 98° |
| 2026-04-22 12:11 | 24.37899 | 41.37799 | 36910 ft | 584 kts | 98° |
| 2026-04-22 12:12 | 24.36954 | 41.46660 | 36911 ft | 585 kts | 98° |
| 2026-04-22 12:12 | 24.36010 | 41.55469 | 36908 ft | 585 kts | 98° |
| 2026-04-22 12:13 | 24.35054 | 41.64329 | 36916 ft | 585 kts | 98° |
| 2026-04-22 12:13 | 24.34094 | 41.73186 | 36914 ft | 585 kts | 98° |
| 2026-04-22 12:14 | 24.33018 | 41.82019 | 36930 ft | 582 kts | 105° |
| 2026-04-22 12:14 | 24.30992 | 41.90584 | 36912 ft | 580 kts | 109° |
| 2026-04-22 12:15 | 24.28763 | 41.99082 | 36885 ft | 580 kts | 110° |
| 2026-04-22 12:15 | 24.26497 | 42.07556 | 36903 ft | 579 kts | 110° |
| 2026-04-22 12:16 | 24.24240 | 42.16038 | 36897 ft | 579 kts | 110° |
| 2026-04-22 12:16 | 24.21993 | 42.24516 | 36893 ft | 579 kts | 109° |
| 2026-04-22 12:17 | 24.19758 | 42.32945 | 36892 ft | 580 kts | 110° |
| 2026-04-22 12:17 | 24.17501 | 42.41431 | 36888 ft | 580 kts | 109° |
| 2026-04-22 12:18 | 24.15241 | 42.49904 | 36889 ft | 580 kts | 109° |
| 2026-04-22 12:18 | 24.12970 | 42.58397 | 36889 ft | 580 kts | 110° |
| 2026-04-22 12:19 | 24.10697 | 42.66878 | 36892 ft | 581 kts | 109° |
| 2026-04-22 12:19 | 24.08418 | 42.75362 | 36888 ft | 581 kts | 109° |
| 2026-04-22 12:20 | 24.06131 | 42.83852 | 36886 ft | 581 kts | 109° |
| 2026-04-22 12:20 | 24.03856 | 42.92274 | 36885 ft | 581 kts | 110° |
| 2026-04-22 12:21 | 24.01558 | 43.00759 | 36887 ft | 581 kts | 110° |
| 2026-04-22 12:21 | 23.99258 | 43.09241 | 36884 ft | 581 kts | 109° |
| 2026-04-22 12:22 | 23.96949 | 43.17732 | 36884 ft | 582 kts | 109° |
| 2026-04-22 12:22 | 23.94637 | 43.26216 | 36872 ft | 582 kts | 109° |
| 2026-04-22 12:23 | 23.92339 | 43.34624 | 36887 ft | 581 kts | 110° |
| 2026-04-22 12:23 | 23.90021 | 43.43089 | 36869 ft | 580 kts | 110° |
| 2026-04-22 12:24 | 23.87703 | 43.51530 | 36871 ft | 580 kts | 110° |
| 2026-04-22 12:24 | 23.85378 | 43.59976 | 36867 ft | 580 kts | 110° |
| 2026-04-22 12:25 | 23.83052 | 43.68410 | 36867 ft | 579 kts | 110° |
| 2026-04-22 12:25 | 23.80728 | 43.76814 | 36862 ft | 578 kts | 110° |
| 2026-04-22 12:26 | 23.78403 | 43.85208 | 36848 ft | 577 kts | 110° |
| 2026-04-22 12:26 | 23.77511 | 43.89495 | 36858 ft | 580 kts | 99° |
| 2026-04-22 12:26 | 23.77032 | 43.93803 | 36851 ft | 579 kts | 97° |
| 2026-04-22 12:27 | 23.76307 | 44.02560 | 36848 ft | 579 kts | 95° |
| 2026-04-22 12:27 | 23.75691 | 44.11340 | 36846 ft | 579 kts | 95° |
| 2026-04-22 12:28 | 23.75064 | 44.20096 | 36861 ft | 579 kts | 95° |
| 2026-04-22 12:28 | 23.74408 | 44.28861 | 36858 ft | 578 kts | 96° |
| 2026-04-22 12:29 | 23.73744 | 44.37553 | 36865 ft | 577 kts | 96° |
| 2026-04-22 12:29 | 23.73071 | 44.46284 | 36865 ft | 578 kts | 96° |
| 2026-04-22 12:30 | 23.72052 | 44.59414 | 37048 ft | 580 kts | 96° |
| 2026-04-22 12:30 | 23.71709 | 44.63796 | 37199 ft | 580 kts | 96° |
| 2026-04-22 12:31 | 23.71365 | 44.68188 | 37327 ft | 581 kts | 96° |
| 2026-04-22 12:31 | 23.71018 | 44.72593 | 37496 ft | 582 kts | 96° |
| 2026-04-22 12:31 | 23.70671 | 44.76997 | 37759 ft | 581 kts | 96° |
| 2026-04-22 12:31 | 23.70325 | 44.81363 | 38160 ft | 576 kts | 96° |
| 2026-04-22 12:32 | 23.69980 | 44.85708 | 38458 ft | 573 kts | 96° |
| 2026-04-22 12:32 | 23.69285 | 44.94365 | 38751 ft | 573 kts | 97° |
| 2026-04-22 12:32 | 23.68936 | 44.98694 | 38811 ft | 574 kts | 96° |
| 2026-04-22 12:33 | 23.68236 | 45.07360 | 38847 ft | 579 kts | 96° |
| 2026-04-22 12:33 | 23.67520 | 45.16155 | 38847 ft | 582 kts | 96° |
| 2026-04-22 12:34 | 23.66801 | 45.24938 | 38855 ft | 580 kts | 97° |
| 2026-04-22 12:34 | 23.66078 | 45.33703 | 38854 ft | 580 kts | 97° |
| 2026-04-22 12:35 | 23.65349 | 45.42472 | 38850 ft | 580 kts | 97° |
| 2026-04-22 12:35 | 23.64613 | 45.51257 | 38850 ft | 581 kts | 97° |
| 2026-04-22 12:36 | 23.63878 | 45.59981 | 38848 ft | 581 kts | 97° |
| 2026-04-22 12:36 | 23.63138 | 45.68754 | 38846 ft | 581 kts | 97° |
| 2026-04-22 12:37 | 23.62384 | 45.77556 | 38846 ft | 581 kts | 97° |
| 2026-04-22 12:37 | 23.61625 | 45.86340 | 38839 ft | 583 kts | 97° |
| 2026-04-22 12:38 | 23.60861 | 45.95143 | 38844 ft | 584 kts | 97° |
| 2026-04-22 12:38 | 23.60096 | 46.03907 | 38838 ft | 584 kts | 97° |
| 2026-04-22 12:39 | 23.58931 | 46.17164 | 38843 ft | 585 kts | 97° |
| 2026-04-22 12:40 | 23.58148 | 46.25991 | 38850 ft | 584 kts | 97° |
| 2026-04-22 12:40 | 23.57366 | 46.34763 | 38853 ft | 585 kts | 97° |
| 2026-04-22 12:41 | 23.56572 | 46.43606 | 38869 ft | 586 kts | 97° |
| 2026-04-22 12:41 | 23.55772 | 46.52445 | 38859 ft | 585 kts | 97° |
| 2026-04-22 12:42 | 23.54974 | 46.61269 | 38849 ft | 585 kts | 97° |
| 2026-04-22 12:42 | 23.54164 | 46.70094 | 38853 ft | 585 kts | 97° |
| 2026-04-22 12:43 | 23.53349 | 46.78916 | 38851 ft | 585 kts | 97° |
| 2026-04-22 12:43 | 23.52530 | 46.87736 | 38844 ft | 585 kts | 97° |
| 2026-04-22 12:44 | 23.51712 | 46.96506 | 38843 ft | 585 kts | 97° |
| 2026-04-22 12:44 | 23.50883 | 47.05337 | 38836 ft | 585 kts | 97° |
| 2026-04-22 12:45 | 23.50050 | 47.14166 | 38810 ft | 586 kts | 97° |
| 2026-04-22 12:45 | 23.49212 | 47.22987 | 38827 ft | 585 kts | 97° |
| 2026-04-22 12:46 | 23.48368 | 47.31815 | 38823 ft | 585 kts | 97° |
| 2026-04-22 12:46 | 23.47520 | 47.40635 | 38823 ft | 585 kts | 97° |
| 2026-04-22 12:47 | 23.46668 | 47.49442 | 38822 ft | 585 kts | 97° |
| 2026-04-22 12:47 | 23.45815 | 47.58259 | 38821 ft | 585 kts | 97° |
| 2026-04-22 12:48 | 23.44957 | 47.67013 | 38818 ft | 585 kts | 97° |
| 2026-04-22 12:48 | 23.44086 | 47.75839 | 38808 ft | 585 kts | 97° |
| 2026-04-22 12:49 | 23.43214 | 47.84637 | 38806 ft | 585 kts | 97° |
| 2026-04-22 12:49 | 23.42337 | 47.93451 | 38799 ft | 585 kts | 97° |
| 2026-04-22 12:50 | 23.41456 | 48.02246 | 38806 ft | 585 kts | 97° |
| 2026-04-22 12:50 | 23.40574 | 48.11008 | 38794 ft | 585 kts | 97° |
| 2026-04-22 12:51 | 23.39681 | 48.19833 | 38782 ft | 585 kts | 97° |
| 2026-04-22 12:51 | 23.38782 | 48.28654 | 38777 ft | 585 kts | 96° |
| 2026-04-22 12:52 | 23.37923 | 48.37410 | 38775 ft | 585 kts | 94° |
| 2026-04-22 12:52 | 23.37538 | 48.46255 | 38780 ft | 585 kts | 91° |
| 2026-04-22 12:53 | 23.37316 | 48.55100 | 38776 ft | 585 kts | 91° |
| 2026-04-22 12:53 | 23.37022 | 48.63941 | 38772 ft | 585 kts | 92° |
| 2026-04-22 12:54 | 23.36662 | 48.72791 | 38772 ft | 584 kts | 92° |
| 2026-04-22 12:54 | 23.36280 | 48.81629 | 38772 ft | 584 kts | 92° |
| 2026-04-22 12:55 | 23.35961 | 48.88971 | 38757 ft | 584 kts | 92° |
| 2026-04-22 12:55 | 23.35578 | 48.97794 | 38762 ft | 583 kts | 92° |
| 2026-04-22 12:56 | 23.34918 | 49.08038 | 38768 ft | 583 kts | 97° |
| 2026-04-22 12:56 | 23.33966 | 49.15319 | 38761 ft | 583 kts | 99° |
| 2026-04-22 12:57 | 23.32714 | 49.24041 | 38760 ft | 583 kts | 99° |
| 2026-04-22 12:57 | 23.31435 | 49.32765 | 38766 ft | 583 kts | 99° |
| 2026-04-22 12:58 | 23.30171 | 49.41434 | 38766 ft | 583 kts | 99° |
| 2026-04-22 12:58 | 23.28903 | 49.50154 | 38766 ft | 583 kts | 99° |
| 2026-04-22 12:59 | 23.27634 | 49.58862 | 38766 ft | 582 kts | 99° |
| 2026-04-22 12:59 | 23.26362 | 49.67559 | 38761 ft | 583 kts | 99° |
| 2026-04-22 13:00 | 23.25081 | 49.76274 | 38765 ft | 583 kts | 99° |
| 2026-04-22 13:00 | 23.23804 | 49.84929 | 38760 ft | 583 kts | 99° |
| 2026-04-22 13:01 | 23.22513 | 49.93641 | 38761 ft | 583 kts | 99° |
| 2026-04-22 13:01 | 23.21217 | 50.02352 | 38758 ft | 582 kts | 99° |
| 2026-04-22 13:02 | 23.19922 | 50.11031 | 38762 ft | 581 kts | 99° |
| 2026-04-22 13:02 | 23.18622 | 50.19701 | 38760 ft | 580 kts | 99° |
| 2026-04-22 13:03 | 23.17319 | 50.28363 | 38758 ft | 580 kts | 99° |
| 2026-04-22 13:03 | 23.16021 | 50.36957 | 38763 ft | 580 kts | 99° |
| 2026-04-22 13:04 | 23.14709 | 50.45611 | 38765 ft | 580 kts | 99° |
| 2026-04-22 13:04 | 23.13390 | 50.54279 | 38760 ft | 580 kts | 99° |
| 2026-04-22 13:05 | 23.12069 | 50.62927 | 38765 ft | 579 kts | 99° |
| 2026-04-22 13:05 | 23.10755 | 50.71494 | 38760 ft | 578 kts | 99° |
| 2026-04-22 13:06 | 23.09428 | 50.80115 | 38763 ft | 578 kts | 99° |
| 2026-04-22 13:06 | 23.08097 | 50.88729 | 38768 ft | 578 kts | 99° |
| 2026-04-22 13:07 | 23.06761 | 50.97347 | 38760 ft | 578 kts | 99° |
| 2026-04-22 13:07 | 23.05421 | 51.05962 | 38761 ft | 578 kts | 99° |
| 2026-04-22 13:08 | 23.04075 | 51.14576 | 38754 ft | 578 kts | 99° |
| 2026-04-22 13:08 | 23.02729 | 51.23166 | 38760 ft | 577 kts | 99° |
| 2026-04-22 13:09 | 23.01378 | 51.31747 | 38762 ft | 576 kts | 99° |
| 2026-04-22 13:09 | 23.00032 | 51.40273 | 38758 ft | 576 kts | 99° |
| 2026-04-22 13:10 | 22.98674 | 51.48843 | 38757 ft | 576 kts | 99° |
| 2026-04-22 13:10 | 22.97311 | 51.57415 | 38754 ft | 576 kts | 99° |
| 2026-04-22 13:11 | 22.95942 | 51.65989 | 38751 ft | 576 kts | 99° |
| 2026-04-22 13:11 | 22.94570 | 51.74553 | 38752 ft | 576 kts | 99° |
| 2026-04-22 13:12 | 22.93195 | 51.83112 | 38751 ft | 576 kts | 99° |
| 2026-04-22 13:12 | 22.91814 | 51.91672 | 38746 ft | 575 kts | 99° |
| 2026-04-22 13:13 | 22.90437 | 52.00179 | 38747 ft | 575 kts | 99° |
| 2026-04-22 13:13 | 22.89048 | 52.08723 | 38748 ft | 575 kts | 99° |
| 2026-04-22 13:14 | 22.87653 | 52.17283 | 38744 ft | 575 kts | 99° |
| 2026-04-22 13:14 | 22.86256 | 52.25823 | 38727 ft | 575 kts | 99° |
| 2026-04-22 13:15 | 22.84862 | 52.34315 | 38737 ft | 574 kts | 99° |
| 2026-04-22 13:15 | 22.83454 | 52.42864 | 38740 ft | 574 kts | 99° |
| 2026-04-22 13:16 | 22.82442 | 52.51380 | 38737 ft | 571 kts | 91° |
| 2026-04-22 13:16 | 22.82117 | 52.59975 | 38733 ft | 571 kts | 89° |
| 2026-04-22 13:17 | 22.81913 | 52.68633 | 38732 ft | 571 kts | 89° |
| 2026-04-22 13:17 | 22.81714 | 52.77180 | 38741 ft | 571 kts | 89° |
| 2026-04-22 13:18 | 22.81493 | 52.85784 | 38728 ft | 571 kts | 89° |
| 2026-04-22 13:18 | 22.81257 | 52.94398 | 38724 ft | 570 kts | 89° |
| 2026-04-22 13:19 | 22.81015 | 53.02994 | 38716 ft | 570 kts | 89° |
| 2026-04-22 13:19 | 22.80770 | 53.11584 | 38722 ft | 569 kts | 89° |
| 2026-04-22 13:20 | 22.80521 | 53.20161 | 38719 ft | 569 kts | 89° |
| 2026-04-22 13:20 | 22.80268 | 53.28740 | 38723 ft | 569 kts | 89° |
| 2026-04-22 13:21 | 22.80010 | 53.37305 | 38715 ft | 568 kts | 89° |
| 2026-04-22 13:21 | 22.79749 | 53.45825 | 38716 ft | 569 kts | 89° |
| 2026-04-22 13:22 | 22.79483 | 53.54400 | 38717 ft | 569 kts | 89° |
| 2026-04-22 13:22 | 22.79211 | 53.62961 | 38713 ft | 568 kts | 89° |
| 2026-04-22 13:23 | 22.78934 | 53.71532 | 38715 ft | 568 kts | 89° |
| 2026-04-22 13:23 | 22.78654 | 53.80103 | 38711 ft | 568 kts | 89° |
| 2026-04-22 13:24 | 22.78371 | 53.88609 | 38697 ft | 568 kts | 89° |
| 2026-04-22 13:24 | 22.78126 | 53.97167 | 38699 ft | 565 kts | 84° |
| 2026-04-22 13:25 | 22.79213 | 54.05515 | 38702 ft | 557 kts | 73° |
| 2026-04-22 13:25 | 22.80834 | 54.13728 | 38706 ft | 557 kts | 72° |
| 2026-04-22 13:26 | 22.82538 | 54.21915 | 38706 ft | 556 kts | 72° |
| 2026-04-22 13:26 | 22.84216 | 54.30063 | 38705 ft | 556 kts | 72° |
| 2026-04-22 13:27 | 22.85877 | 54.38254 | 38700 ft | 556 kts | 72° |
| 2026-04-22 13:27 | 22.87524 | 54.46440 | 38699 ft | 556 kts | 72° |
| 2026-04-22 13:28 | 22.89169 | 54.54637 | 38701 ft | 556 kts | 72° |
| 2026-04-22 13:28 | 22.90809 | 54.62824 | 38699 ft | 556 kts | 72° |
| 2026-04-22 13:29 | 22.92449 | 54.71037 | 38698 ft | 555 kts | 72° |
| 2026-04-22 13:29 | 22.94079 | 54.79219 | 38704 ft | 555 kts | 73° |
| 2026-04-22 13:30 | 22.95708 | 54.87417 | 38705 ft | 555 kts | 73° |
| 2026-04-22 13:30 | 22.97322 | 54.95569 | 38705 ft | 555 kts | 73° |
| 2026-04-22 13:31 | 22.98941 | 55.03768 | 38707 ft | 555 kts | 73° |
| 2026-04-22 13:31 | 23.00603 | 55.11942 | 38706 ft | 552 kts | 69° |
| 2026-04-22 13:31 | 23.01893 | 55.15816 | 38708 ft | 542 kts | 58° |
| 2026-04-22 13:32 | 23.03735 | 55.19338 | 38717 ft | 529 kts | 47° |
| 2026-04-22 13:32 | 23.06067 | 55.22346 | 38718 ft | 515 kts | 35° |
| 2026-04-22 13:32 | 23.08805 | 55.24779 | 38717 ft | 501 kts | 24° |
| 2026-04-22 13:32 | 23.11805 | 55.26575 | 38726 ft | 487 kts | 14° |
| 2026-04-22 13:33 | 23.14965 | 55.27762 | 38733 ft | 477 kts | 6° |
| 2026-04-22 13:33 | 23.21331 | 55.29694 | 38717 ft | 478 kts | 6° |
| 2026-04-22 13:34 | 23.27784 | 55.31522 | 38721 ft | 478 kts | 6° |
| 2026-04-22 13:34 | 23.34229 | 55.33379 | 38717 ft | 479 kts | 6° |
| 2026-04-22 13:35 | 23.40626 | 55.35259 | 38721 ft | 479 kts | 6° |
| 2026-04-22 13:35 | 23.47067 | 55.37165 | 38729 ft | 480 kts | 6° |
| 2026-04-22 13:36 | 23.53524 | 55.39080 | 38731 ft | 481 kts | 6° |
| 2026-04-22 13:36 | 23.59991 | 55.40996 | 38733 ft | 481 kts | 6° |
| 2026-04-22 13:37 | 23.66458 | 55.42909 | 38728 ft | 481 kts | 6° |
| 2026-04-22 13:37 | 23.72848 | 55.44808 | 38427 ft | 474 kts | 6° |
| 2026-04-22 13:37 | 23.76033 | 55.45754 | 37756 ft | 475 kts | 6° |
| 2026-04-22 13:38 | 23.79225 | 55.46699 | 37047 ft | 476 kts | 6° |
| 2026-04-22 13:38 | 23.85651 | 55.48600 | 35640 ft | 480 kts | 7° |
| 2026-04-22 13:38 | 23.88886 | 55.49563 | 34945 ft | 482 kts | 8° |
| 2026-04-22 13:39 | 23.92132 | 55.50527 | 34256 ft | 484 kts | 8° |
| 2026-04-22 13:39 | 23.95393 | 55.51493 | 33530 ft | 486 kts | 8° |
| 2026-04-22 13:39 | 23.98650 | 55.52573 | 32698 ft | 494 kts | 15° |
| 2026-04-22 13:39 | 24.01742 | 55.54289 | 31892 ft | 506 kts | 28° |
| 2026-04-22 13:40 | 24.04561 | 55.56638 | 31117 ft | 512 kts | 35° |
| 2026-04-22 13:40 | 24.07273 | 55.59172 | 30358 ft | 514 kts | 37° |
| 2026-04-22 13:40 | 24.09902 | 55.61765 | 29573 ft | 515 kts | 39° |
| 2026-04-22 13:40 | 24.12543 | 55.64430 | 28698 ft | 516 kts | 39° |
| 2026-04-22 13:41 | 24.15187 | 55.67110 | 27916 ft | 514 kts | 39° |
| 2026-04-22 13:41 | 24.17805 | 55.69756 | 27112 ft | 508 kts | 39° |
| 2026-04-22 13:41 | 24.20365 | 55.72332 | 26102 ft | 491 kts | 39° |
| 2026-04-22 13:41 | 24.22827 | 55.74800 | 25494 ft | 470 kts | 39° |
| 2026-04-22 13:42 | 24.25232 | 55.77196 | 24955 ft | 475 kts | 39° |
| 2026-04-22 13:42 | 24.27684 | 55.79629 | 24594 ft | 473 kts | 39° |
| 2026-04-22 13:42 | 24.30088 | 55.82018 | 23895 ft | 462 kts | 39° |
| 2026-04-22 13:42 | 24.32469 | 55.84383 | 23070 ft | 461 kts | 40° |
| 2026-04-22 13:43 | 24.34848 | 55.86748 | 22460 ft | 458 kts | 40° |
| 2026-04-22 13:43 | 24.37192 | 55.89082 | 21819 ft | 454 kts | 40° |
| 2026-04-22 13:43 | 24.39536 | 55.91421 | 21320 ft | 451 kts | 40° |
| 2026-04-22 13:43 | 24.41838 | 55.93719 | 20684 ft | 444 kts | 40° |
| 2026-04-22 13:44 | 24.44124 | 55.95998 | 20121 ft | 442 kts | 40° |
| 2026-04-22 13:44 | 24.46385 | 55.98252 | 19561 ft | 437 kts | 40° |
| 2026-04-22 13:44 | 24.48630 | 56.00492 | 19048 ft | 435 kts | 40° |
| 2026-04-22 13:44 | 24.50861 | 56.02718 | 18494 ft | 433 kts | 41° |
| 2026-04-22 13:45 | 24.53049 | 56.04904 | 18049 ft | 428 kts | 41° |
| 2026-04-22 13:45 | 24.55244 | 56.07103 | 17468 ft | 426 kts | 41° |
| 2026-04-22 13:45 | 24.57430 | 56.09295 | 16922 ft | 423 kts | 41° |
| 2026-04-22 13:45 | 24.59761 | 56.11201 | 16458 ft | 415 kts | 28° |
| 2026-04-22 13:46 | 24.62404 | 56.12426 | 15877 ft | 411 kts | 15° |
| 2026-04-22 13:46 | 24.65148 | 56.13210 | 15452 ft | 405 kts | 11° |
| 2026-04-22 13:46 | 24.67896 | 56.13788 | 15017 ft | 400 kts | 8° |
| 2026-04-22 13:46 | 24.70651 | 56.14123 | 14531 ft | 397 kts | 359° |
| 2026-04-22 13:47 | 24.73327 | 56.13869 | 14049 ft | 373 kts | 347° |
| 2026-04-22 13:47 | 24.74969 | 56.13482 | 13748 ft | 354 kts | 344° |
| 2026-04-22 13:47 | 24.77293 | 56.12845 | 13263 ft | 334 kts | 343° |
| 2026-04-22 13:47 | 24.80105 | 56.11821 | 12566 ft | 310 kts | 330° |
| 2026-04-22 13:48 | 24.81851 | 56.10546 | 12033 ft | 294 kts | 314° |
| 2026-04-22 13:48 | 24.82770 | 56.09444 | 11674 ft | 284 kts | 304° |
| 2026-04-22 13:48 | 24.83899 | 56.07739 | 11258 ft | 275 kts | 301° |
| 2026-04-22 13:48 | 24.84972 | 56.05993 | 10863 ft | 276 kts | 301° |
| 2026-04-22 13:49 | 24.86036 | 56.04229 | 10463 ft | 276 kts | 300° |
| 2026-04-22 13:49 | 24.87094 | 56.02468 | 10073 ft | 274 kts | 300° |
| 2026-04-22 13:49 | 24.88139 | 56.00722 | 9664 ft | 272 kts | 300° |
| 2026-04-22 13:49 | 24.89178 | 55.98981 | 9222 ft | 271 kts | 300° |
| 2026-04-22 13:50 | 24.90207 | 55.97256 | 8766 ft | 267 kts | 300° |
| 2026-04-22 13:50 | 24.91217 | 55.95561 | 8338 ft | 264 kts | 300° |
| 2026-04-22 13:50 | 24.92222 | 55.93873 | 7906 ft | 263 kts | 300° |
| 2026-04-22 13:50 | 24.93222 | 55.92192 | 7489 ft | 262 kts | 301° |
| 2026-04-22 13:51 | 24.94216 | 55.90521 | 7060 ft | 260 kts | 301° |
| 2026-04-22 13:51 | 24.95203 | 55.88862 | 6627 ft | 258 kts | 301° |
| 2026-04-22 13:51 | 24.96184 | 55.87212 | 6226 ft | 257 kts | 301° |
| 2026-04-22 13:51 | 24.97150 | 55.85588 | 5807 ft | 249 kts | 301° |
| 2026-04-22 13:52 | 24.98073 | 55.84038 | 5588 ft | 233 kts | 301° |
| 2026-04-22 13:52 | 24.98939 | 55.82581 | 5405 ft | 221 kts | 301° |
| 2026-04-22 13:52 | 24.99774 | 55.81174 | 5285 ft | 219 kts | 301° |
| 2026-04-22 13:52 | 25.00616 | 55.79752 | 5170 ft | 225 kts | 302° |
| 2026-04-22 13:53 | 25.01480 | 55.78294 | 5037 ft | 230 kts | 302° |
| 2026-04-22 13:53 | 25.02366 | 55.76802 | 4931 ft | 233 kts | 300° |
| 2026-04-22 13:53 | 25.03253 | 55.75309 | 4813 ft | 232 kts | 301° |
| 2026-04-22 13:53 | 25.04135 | 55.73823 | 4691 ft | 231 kts | 301° |
| 2026-04-22 13:54 | 25.05003 | 55.72357 | 4589 ft | 231 kts | 301° |
| 2026-04-22 13:54 | 25.05883 | 55.70873 | 4445 ft | 231 kts | 301° |
| 2026-04-22 13:54 | 25.06763 | 55.69390 | 4331 ft | 231 kts | 301° |
| 2026-04-22 13:54 | 25.07730 | 55.67983 | 4184 ft | 230 kts | 306° |
| 2026-04-22 13:55 | 25.08646 | 55.66549 | 4028 ft | 228 kts | 300° |
| 2026-04-22 13:55 | 25.09490 | 55.65069 | 3892 ft | 229 kts | 300° |
| 2026-04-22 13:55 | 25.10329 | 55.63575 | 3751 ft | 229 kts | 300° |
| 2026-04-22 13:55 | 25.11158 | 55.62076 | 3613 ft | 228 kts | 300° |
| 2026-04-22 13:56 | 25.11975 | 55.60581 | 3474 ft | 228 kts | 300° |
| 2026-04-22 13:56 | 25.12790 | 55.59079 | 3336 ft | 227 kts | 300° |
| 2026-04-22 13:56 | 25.13587 | 55.57598 | 3198 ft | 222 kts | 300° |
| 2026-04-22 13:56 | 25.14369 | 55.56149 | 3053 ft | 218 kts | 300° |
| 2026-04-22 13:57 | 25.15132 | 55.54752 | 2990 ft | 206 kts | 300° |
| 2026-04-22 13:57 | 25.15859 | 55.53445 | 2824 ft | 195 kts | 301° |
| 2026-04-22 13:57 | 25.16563 | 55.52191 | 2552 ft | 189 kts | 301° |
| 2026-04-22 13:57 | 25.17233 | 55.50982 | 2301 ft | 179 kts | 301° |
| 2026-04-22 13:58 | 25.17852 | 55.49857 | 2095 ft | 165 kts | 301° |
| 2026-04-22 13:58 | 25.18433 | 55.48807 | 1891 ft | 161 kts | 302° |
| 2026-04-22 13:58 | 25.19017 | 55.47754 | 1688 ft | 160 kts | 305° |
| 2026-04-22 13:58 | 25.19601 | 55.46705 | 1452 ft | 159 kts | 305° |
| 2026-04-22 13:59 | 25.20187 | 55.45653 | 1280 ft | 163 kts | 305° |
| 2026-04-22 13:59 | 25.20772 | 55.44594 | 1053 ft | 157 kts | 304° |
| 2026-04-22 13:59 | 25.21315 | 55.43604 | 887 ft | 147 kts | 306° |
| 2026-04-22 13:59 | 25.21840 | 55.42659 | 711 ft | 142 kts | 306° |
| 2026-04-22 14:00 | 25.22345 | 55.41744 | 527 ft | 137 kts | 307° |
| 2026-04-22 14:00 | 25.22831 | 55.40851 | 325 ft | 134 kts | 307° |
| 2026-04-22 14:00 | 25.23314 | 55.39973 | 177 ft | 135 kts | 306° |
| 2026-04-22 14:00 | 25.23803 | 55.39104 | 38 ft | 131 kts | 304° |
| 2026-04-22 14:01 | 25.24169 | 55.38444 | 30 ft | 66 kts | 301° |
| 2026-04-22 14:01 | 25.24395 | 55.38038 | 29 ft | 67 kts | 301° |
| 2026-04-22 14:01 | 25.24655 | 55.37566 | 27 ft | 64 kts | 301° |
| 2026-04-22 14:01 | 25.24774 | 55.37292 | 28 ft | 28 kts | 282° |
| 2026-04-22 14:02 | 25.24785 | 55.37107 | 27 ft | 16 kts | 271° |
| 2026-04-22 14:02 | 25.24787 | 55.37025 | 31 ft | 5 kts | 272° |
| 2026-04-22 14:02 | 25.24790 | 55.36991 | 29 ft | 5 kts | 278° |
| 2026-04-22 14:02 | 25.24803 | 55.36948 | 28 ft | 7 kts | 294° |
| 2026-04-22 14:03 | 25.24826 | 55.36899 | 30 ft | 8 kts | 299° |
| 2026-04-22 14:03 | 25.24852 | 55.36834 | 30 ft | 12 kts | 287° |
| 2026-04-22 14:03 | 25.24873 | 55.36730 | 28 ft | 15 kts | 284° |
| 2026-04-22 14:03 | 25.24916 | 55.36622 | 30 ft | 16 kts | 302° |
| 2026-04-22 14:04 | 25.24958 | 55.36549 | 30 ft | 10 kts | 301° |
| 2026-04-22 14:04 | 25.24995 | 55.36481 | 29 ft | 11 kts | 302° |
| 2026-04-22 14:04 | 25.25038 | 55.36405 | 31 ft | 13 kts | 302° |
| 2026-04-22 14:04 | 25.25101 | 55.36294 | 29 ft | 21 kts | 302° |
| 2026-04-22 14:05 | 25.25184 | 55.36146 | 28 ft | 24 kts | 302° |
| 2026-04-22 14:05 | 25.25276 | 55.35980 | 29 ft | 26 kts | 302° |
| 2026-04-22 14:05 | 25.25478 | 55.35622 | 30 ft | 29 kts | 301° |
| 2026-04-22 14:06 | 25.25592 | 55.35424 | 26 ft | 31 kts | 300° |
| 2026-04-22 14:06 | 25.25706 | 55.35218 | 30 ft | 31 kts | 302° |
| 2026-04-22 14:06 | 25.25819 | 55.35012 | 27 ft | 31 kts | 301° |
| 2026-04-22 14:06 | 25.25933 | 55.34809 | 28 ft | 31 kts | 302° |
| 2026-04-22 14:07 | 25.26047 | 55.34606 | 29 ft | 31 kts | 302° |
| 2026-04-22 14:07 | 25.26157 | 55.34411 | 29 ft | 26 kts | 301° |
| 2026-04-22 14:07 | 25.26204 | 55.34327 | 30 ft | 6 kts | 302° |
| 2026-04-22 14:07 | 25.26218 | 55.34326 | 30 ft | 4 kts | 16° |
| 2026-04-22 14:08 | 25.26260 | 55.34354 | 30 ft | 8 kts | 32° |
| 2026-04-22 14:08 | 25.26292 | 55.34376 | 29 ft | 3 kts | 31° |
| 2026-04-22 14:08 | 25.26295 | 55.34378 | 31 ft | 0 kts | 31° |